地図

経路データ

SID SEASON NUMBER BASIN SUBBASIN NAME ISO_TIME NATURE LAT LON WMO_WIND WMO_PRES WMO_AGENCY TRACK_TYPE DIST2LAND LANDFALL IFLAG USA_AGENCY USA_ATCF_ID USA_LAT USA_LON USA_RECORD USA_STATUS USA_WIND USA_PRES USA_SSHS USA_R34_NE USA_R34_SE USA_R34_SW USA_R34_NW USA_R50_NE USA_R50_SE USA_R50_SW USA_R50_NW USA_R64_NE USA_R64_SE USA_R64_SW USA_R64_NW USA_POCI USA_ROCI USA_RMW USA_EYE TOKYO_LAT TOKYO_LON TOKYO_GRADE TOKYO_WIND TOKYO_PRES TOKYO_R50_DIR TOKYO_R50_LONG TOKYO_R50_SHORT TOKYO_R30_DIR TOKYO_R30_LONG TOKYO_R30_SHORT TOKYO_LAND CMA_LAT CMA_LON CMA_CAT CMA_WIND CMA_PRES HKO_LAT HKO_LON HKO_CAT HKO_WIND HKO_PRES NEWDELHI_LAT NEWDELHI_LON NEWDELHI_GRADE NEWDELHI_WIND NEWDELHI_PRES NEWDELHI_CI NEWDELHI_DP NEWDELHI_POCI REUNION_LAT REUNION_LON REUNION_TYPE REUNION_WIND REUNION_PRES REUNION_TNUM REUNION_CI REUNION_RMW REUNION_R34_NE REUNION_R34_SE REUNION_R34_SW REUNION_R34_NW REUNION_R50_NE REUNION_R50_SE REUNION_R50_SW REUNION_R50_NW REUNION_R64_NE REUNION_R64_SE REUNION_R64_SW REUNION_R64_NW BOM_LAT BOM_LON BOM_TYPE BOM_WIND BOM_PRES BOM_TNUM BOM_CI BOM_RMW BOM_R34_NE BOM_R34_SE BOM_R34_SW BOM_R34_NW BOM_R50_NE BOM_R50_SE BOM_R50_SW BOM_R50_NW BOM_R64_NE BOM_R64_SE BOM_R64_SW BOM_R64_NW BOM_ROCI BOM_POCI BOM_EYE BOM_POS_METHOD BOM_PRES_METHOD NADI_LAT NADI_LON NADI_CAT NADI_WIND NADI_PRES WELLINGTON_LAT WELLINGTON_LON WELLINGTON_WIND WELLINGTON_PRES DS824_LAT DS824_LON DS824_STAGE DS824_WIND DS824_PRES TD9636_LAT TD9636_LON TD9636_STAGE TD9636_WIND TD9636_PRES TD9635_LAT TD9635_LON TD9635_WIND TD9635_PRES TD9635_ROCI NEUMANN_LAT NEUMANN_LON NEUMANN_CLASS NEUMANN_WIND NEUMANN_PRES MLC_LAT MLC_LON MLC_CLASS MLC_WIND MLC_PRES USA_GUST BOM_GUST BOM_GUST_PER REUNION_GUST REUNION_GUST_PER USA_SEAHGT USA_SEARAD_NE USA_SEARAD_SE USA_SEARAD_SW USA_SEARAD_NW STORM_SPEED STORM_DIR
1923024N09138 1923 6 WP MM NOT_NAMED 1923-01-24 10:00:00 NR 9.00000 138.300 main 1127 1121 __________O___ -1 9.00000 138.300 7 6 276
1923024N09138 1923 6 WP MM NOT_NAMED 1923-01-24 12:00:00 NR 9.02108 138.110 main 1121 1113 __________P___ -1 9.02108 138.110 7 6 276
1923024N09138 1923 6 WP MM NOT_NAMED 1923-01-24 15:00:00 NR 9.05097 137.821 main 1124 1118 __________P___ -1 9.05097 137.821 7 6 275
1923024N09138 1923 6 WP MM NOT_NAMED 1923-01-24 18:00:00 NR 9.07661 137.522 main 1118 1112 __________P___ -1 9.07661 137.522 7 6 274
1923024N09138 1923 6 WP MM NOT_NAMED 1923-01-24 21:00:00 NR 9.09558 137.209 main 1112 1110 __________P___ -1 9.09558 137.209 7 6 273
1923024N09138 1923 6 WP MM NOT_NAMED 1923-01-24 22:00:00 NR 9.10000 137.100 main 1110 1107 __________O___ -1 9.10000 137.100 2 7 272
1923024N09138 1923 6 WP MM NOT_NAMED 1923-01-25 00:00:00 NR 9.10570 136.875 main 1107 1101 __________P___ -1 9.10570 136.875 2 7 271
1923024N09138 1923 6 WP MM NOT_NAMED 1923-01-25 03:00:00 NR 9.10796 136.526 main 1101 1068 __________P___ -1 9.10796 136.526 2 7 270
1923024N09138 1923 6 WP MM NOT_NAMED 1923-01-25 06:00:00 NR 9.10542 136.170 main 1068 1024 __________P___ -1 9.10542 136.170 2 7 269
1923024N09138 1923 6 WP MM NOT_NAMED 1923-01-25 09:00:00 NR 9.10122 135.816 main 1024 1014 __________P___ -1 9.10122 135.816 2 7 269
1923024N09138 1923 6 WP MM NOT_NAMED 1923-01-25 10:00:00 NR 9.10000 135.700 main 1014 992 __________O___ -1 9.10000 135.700 2 6 269
1923024N09138 1923 6 WP MM NOT_NAMED 1923-01-25 12:00:00 NR 9.09721 135.488 main 992 959 __________P___ -1 9.09721 135.488 2 6 269
1923024N09138 1923 6 WP MM NOT_NAMED 1923-01-25 15:00:00 NR 9.09307 135.177 main 959 927 __________P___ -1 9.09307 135.177 2 6 269
1923024N09138 1923 6 WP MM NOT_NAMED 1923-01-25 18:00:00 NR 9.09180 134.859 main 927 883 __________P___ -1 9.09180 134.859 2 6 270
1923024N09138 1923 6 WP MM NOT_NAMED 1923-01-25 21:00:00 NR 9.09655 134.520 main 883 872 __________P___ -1 9.09655 134.520 2 7 271
1923024N09138 1923 6 WP MM NOT_NAMED 1923-01-25 22:00:00 NR 9.10000 134.400 main 872 840 __________O___ -1 9.10000 134.400 2 8 272
1923024N09138 1923 6 WP MM NOT_NAMED 1923-01-26 00:00:00 NR 9.11100 134.134 main 840 797 __________P___ -1 9.11100 134.134 2 8 273
1923024N09138 1923 6 WP MM NOT_NAMED 1923-01-26 03:00:00 NR 9.13379 133.710 main 797 756 __________P___ -1 9.13379 133.710 2 9 273
1923024N09138 1923 6 WP MM NOT_NAMED 1923-01-26 06:00:00 NR 9.16131 133.273 main 756 702 __________P___ -1 9.16131 133.273 2 9 274
1923024N09138 1923 6 WP MM NOT_NAMED 1923-01-26 09:00:00 NR 9.19045 132.840 main 702 692 __________P___ -1 9.19045 132.840 2 9 274
1923024N09138 1923 6 WP MM NOT_NAMED 1923-01-26 10:00:00 NR 9.20000 132.700 main 692 660 __________O___ -1 9.20000 132.700 2 8 274
1923024N09138 1923 6 WP MM NOT_NAMED 1923-01-26 12:00:00 NR 9.21910 132.444 main 660 628 __________P___ -1 9.21910 132.444 2 7 274
1923024N09138 1923 6 WP MM NOT_NAMED 1923-01-26 15:00:00 NR 9.24794 132.072 main 628 589 __________P___ -1 9.24794 132.072 2 7 274
1923024N09138 1923 6 WP MM NOT_NAMED 1923-01-26 18:00:00 NR 9.27426 131.705 main 589 547 __________P___ -1 9.27426 131.705 2 7 274
1923024N09138 1923 6 WP MM NOT_NAMED 1923-01-26 21:00:00 NR 9.29492 131.329 main 547 537 __________P___ -1 9.29492 131.329 2 7 273
1923024N09138 1923 6 WP MM NOT_NAMED 1923-01-26 22:00:00 NR 9.30000 131.200 main 537 506 __________O___ -1 9.30000 131.200 2 8 272
1923024N09138 1923 6 WP MM NOT_NAMED 1923-01-27 00:00:00 NR 9.30566 130.928 main 506 464 __________P___ -1 9.30566 130.928 2 8 271
1923024N09138 1923 6 WP MM NOT_NAMED 1923-01-27 03:00:00 NR 9.30787 130.508 main 464 421 __________P___ -1 9.30787 130.508 2 8 270
1923024N09138 1923 6 WP MM NOT_NAMED 1923-01-27 06:00:00 NR 9.30534 130.077 main 421 366 __________P___ -1 9.30534 130.077 2 9 270
1923024N09138 1923 6 WP MM NOT_NAMED 1923-01-27 09:00:00 NR 9.30119 129.644 main 366 356 __________P___ -1 9.30119 129.644 2 9 269
1923024N09138 1923 6 WP MM NOT_NAMED 1923-01-27 10:00:00 NR 9.30000 129.500 main 356 323 __________O___ -1 9.30000 129.500 2 8 269
1923024N09138 1923 6 WP MM NOT_NAMED 1923-01-27 12:00:00 NR 9.29714 129.230 main 323 280 __________P___ -1 9.29714 129.230 2 8 269
1923024N09138 1923 6 WP MM NOT_NAMED 1923-01-27 15:00:00 NR 9.29292 128.825 main 280 237 __________P___ -1 9.29292 128.825 2 8 270
1923024N09138 1923 6 WP MM NOT_NAMED 1923-01-27 18:00:00 NR 9.29164 128.406 main 237 195 __________P___ -1 9.29164 128.406 2 9 270
1923024N09138 1923 6 WP MM NOT_NAMED 1923-01-27 21:00:00 NR 9.29649 127.958 main 195 174 __________P___ -1 9.29649 127.958 2 9 271
1923024N09138 1923 6 WP MM NOT_NAMED 1923-01-27 22:00:00 NR 9.30000 127.800 main 174 143 __________O___ -1 9.30000 127.800 2 10 272
1923024N09138 1923 6 WP MM NOT_NAMED 1923-01-28 00:00:00 NR 9.31626 127.457 main 143 77 __________P___ -1 9.31626 127.457 2 11 273
1923024N09138 1923 6 WP MM NOT_NAMED 1923-01-28 03:00:00 NR 9.34705 126.910 main 77 24 __________P___ -1 9.34705 126.910 2 11 273
1923024N09138 1923 6 WP MM NOT_NAMED 1923-01-28 06:00:00 NR 9.37712 126.345 main 24 0 __________P___ -1 9.37712 126.345 2 11 273
1923024N09138 1923 6 WP MM NOT_NAMED 1923-01-28 09:00:00 NR 9.39715 125.783 main 0 0 __________P___ -1 9.39715 125.783 2 11 272
1923024N09138 1923 6 WP MM NOT_NAMED 1923-01-28 10:00:00 NR 9.40000 125.600 main 0 0 __________O___ -1 9.40000 125.600 2 11 270
1923024N09138 1923 6 WP MM NOT_NAMED 1923-01-28 12:00:00 NR 9.39866 125.245 main 32 32 __________P___ -1 9.39866 125.245 2 10 269
1923024N09138 1923 6 WP MM NOT_NAMED 1923-01-28 15:00:00 NR 9.38163 124.733 main 35 22 __________P___ -1 9.38163 124.733 2 10 267
1923024N09138 1923 6 WP MM NOT_NAMED 1923-01-28 18:00:00 NR 9.35143 124.241 main 22 33 __________P___ -1 9.35143 124.241 2 10 266
1923024N09138 1923 6 WP MM NOT_NAMED 1923-01-28 21:00:00 NR 9.31346 123.759 main 35 31 __________P___ -1 9.31346 123.759 2 10 265
1923024N09138 1923 6 WP MM NOT_NAMED 1923-01-28 22:00:00 NR 9.30000 123.600 main 31 __________O___ -1 9.30000 123.600 7 9 265

デジタル台風データ・検索

IBTrACS Databaseについて

本データベースは、米国NOAAが公開する1842年以降の世界の熱帯低気圧のベストトラックデータアーカイブInternational Best Track Archive for Climate Stewardship (IBTrACS)を、ウェブで閲覧しやすい形式に変換したものです。

最終更新日:2021-10-08